Time;durP1;ratioP1;P1;durP2;ratioP2;P2;SDS_P1;SDS_P2;PMS_P1;PMS_P2;Temp;Humidity;BMP_temperature;BMP_pressure;BME280_temperature;BME280_humidity;BME280_pressure;Samples;Min_cycle;Max_cycle;Signal;HPM_P1;HPM_P2
2021/08/23 00:00:53;;;;;;;8.70;5.93;;;;;;;20.31;53.93;101432.03;5050889;28;20239;-60
2021/08/23 00:03:18;;;;;;;6.63;5.20;;;;;;;20.29;53.44;101432.50;5052280;28;20196;-60
2021/08/23 00:05:44;;;;;;;7.10;5.67;;;;;;;19.84;53.52;101372.91;5054728;28;20190;-60
2021/08/23 00:08:09;;;;;;;10.80;6.57;;;;;;;20.16;54.46;101428.38;5054661;28;20258;-60
2021/08/23 00:10:35;;;;;;;10.90;6.53;;;;;;;20.29;53.98;101438.16;5054485;28;20245;-60
2021/08/23 00:13:00;;;;;;;9.53;5.80;;;;;;;20.24;54.09;101438.81;5054456;28;20176;-60
2021/08/23 00:15:26;;;;;;;10.47;6.00;;;;;;;20.18;54.10;101448.38;5054651;28;20668;-60
2021/08/23 00:17:51;;;;;;;9.73;5.70;;;;;;;20.19;54.03;101447.13;5054564;28;20233;-60
2021/08/23 00:20:21;;;;;;;9.33;5.57;;;;;;;20.20;53.55;101449.47;5036386;28;20665;-60
2021/08/23 00:22:48;;;;;;;11.70;6.37;;;;;;;20.15;53.77;101440.88;5054334;28;20353;-60
2021/08/23 00:25:15;;;;;;;12.07;5.97;;;;;;;20.10;53.95;101445.16;5054351;28;20172;-60
2021/08/23 00:27:41;;;;;;;9.50;5.80;;;;;;;20.04;54.12;101443.41;5054362;28;20649;-60
2021/08/23 00:30:07;;;;;;;12.57;6.33;;;;;;;19.77;54.25;101402.19;5054219;28;20180;-60
2021/08/23 00:32:34;;;;;;;12.30;5.70;;;;;;;20.09;54.52;101446.41;5054116;28;20274;-60
2021/08/23 00:35:00;;;;;;;8.83;5.90;;;;;;;19.95;54.28;101447.06;5054121;28;20563;-60
2021/08/23 00:37:25;;;;;;;8.63;5.50;;;;;;;19.96;54.58;101445.03;5054018;28;20266;-60
2021/08/23 00:39:52;;;;;;;7.93;5.47;;;;;;;20.02;54.30;101443.13;5054070;28;20182;-60
2021/08/23 00:42:17;;;;;;;9.63;5.47;;;;;;;19.99;54.40;101442.06;5053911;28;20578;-60
2021/08/23 00:44:43;;;;;;;11.17;6.40;;;;;;;19.82;54.57;101431.69;5053791;28;20314;-60
2021/08/23 00:47:09;;;;;;;8.33;5.13;;;;;;;19.87;54.61;101434.63;5036060;28;20605;-60
2021/08/23 00:49:35;;;;;;;7.87;5.77;;;;;;;19.46;54.68;101406.53;5053642;28;20187;-60
2021/08/23 00:52:01;;;;;;;7.83;4.90;;;;;;;19.68;54.66;101433.16;5054000;28;20210;-60
2021/08/23 00:54:27;;;;;;;7.53;5.70;;;;;;;19.39;54.88;101404.06;5053742;28;20647;-60
2021/08/23 00:56:53;;;;;;;7.37;5.27;;;;;;;19.55;55.34;101445.84;5053716;28;20191;-60
2021/08/23 00:59:20;;;;;;;7.83;5.53;;;;;;;19.52;55.19;101438.38;5053715;28;20181;-60
2021/08/23 01:02:03;;;;;;;7.50;5.67;;;;;;;19.52;55.26;101446.78;5053643;28;20207;-60
2021/08/23 01:04:40;;;;;;;8.13;5.57;;;;;;;19.28;55.34;101396.13;5053666;28;20171;-60
2021/08/23 01:07:10;;;;;;;9.47;5.47;;;;;;;19.62;55.37;101434.25;5053634;28;20180;-60
2021/08/23 01:09:39;;;;;;;7.53;5.70;;;;;;;19.48;55.37;101424.47;5053457;28;20190;-60
2021/08/23 01:12:07;;;;;;;10.00;5.90;;;;;;;19.61;55.58;101452.41;5053458;28;20200;-60
2021/08/23 01:14:33;;;;;;;8.23;5.90;;;;;;;19.20;55.43;101391.28;5052331;28;20207;-60
2021/08/23 01:17:00;;;;;;;11.10;6.27;;;;;;;19.58;55.45;101444.91;5053330;28;20654;-60
2021/08/23 01:19:28;;;;;;;8.97;5.50;;;;;;;19.65;55.69;101445.34;5053319;28;20184;-60
2021/08/23 01:21:57;;;;;;;7.13;5.87;;;;;;;19.31;55.17;101388.78;5053210;28;20211;-60
2021/08/23 01:24:24;;;;;;;11.67;6.00;;;;;;;19.65;55.24;101448.16;5035279;28;20620;-60
2021/08/23 01:26:52;;;;;;;7.60;5.60;;;;;;;19.70;55.17;101455.19;5053281;28;20569;-60
2021/08/23 01:29:43;;;;;;;9.33;5.70;;;;;;;19.68;55.28;101454.84;5053257;28;20190;-60
2021/08/23 01:32:17;;;;;;;8.17;5.87;;;;;;;19.70;55.25;101455.19;5053074;28;20185;-60
2021/08/23 01:34:44;;;;;;;6.67;5.47;;;;;;;19.71;55.13;101451.09;5053029;28;20540;-60
2021/08/23 01:37:13;;;;;;;7.73;5.93;;;;;;;19.78;55.31;101450.75;5052970;28;20183;-60
2021/08/23 01:39:40;;;;;;;6.37;5.60;;;;;;;19.77;55.55;101449.19;5052818;28;20225;-60
2021/08/23 01:42:06;;;;;;;14.93;6.13;;;;;;;19.73;55.24;101435.31;5052991;28;20203;-60
2021/08/23 01:44:31;;;;;;;10.40;5.90;;;;;;;19.72;55.56;101447.03;5052618;28;20316;-60
2021/08/23 01:46:57;;;;;;;9.43;5.57;;;;;;;19.42;55.35;101389.06;5052806;28;20188;-60
2021/08/23 01:49:23;;;;;;;14.23;6.37;;;;;;;19.75;55.48;101446.09;5052637;28;20681;-60
2021/08/23 01:51:48;;;;;;;11.20;6.03;;;;;;;19.67;55.37;101442.06;5052833;28;20749;-60
2021/08/23 01:54:14;;;;;;;11.00;6.30;;;;;;;19.32;55.45;101401.56;5052547;28;20652;-60
2021/08/23 01:56:39;;;;;;;8.87;6.23;;;;;;;19.51;55.71;101448.84;5052618;28;20273;-60
2021/08/23 01:59:05;;;;;;;6.47;5.50;;;;;;;19.45;55.64;101444.34;5052638;28;20187;-60
2021/08/23 02:01:31;;;;;;;7.83;6.03;;;;;;;19.49;55.63;101448.53;5052453;28;20725;-60
2021/08/23 02:03:57;;;;;;;8.30;5.80;;;;;;;19.45;55.63;101453.53;5052878;28;20201;-60
2021/08/23 02:06:24;;;;;;;8.27;6.00;;;;;;;19.42;56.08;101453.69;5052481;28;20179;-60
2021/08/23 02:08:50;;;;;;;10.90;6.50;;;;;;;19.25;56.18;101430.03;5052329;28;20176;-60
2021/08/23 02:11:16;;;;;;;8.63;6.37;;;;;;;19.39;56.31;101447.00;5052244;28;20178;-60
2021/08/23 02:13:42;;;;;;;9.60;6.13;;;;;;;19.06;56.13;101403.19;5052148;28;20176;-60
2021/08/23 02:16:07;;;;;;;7.57;6.10;;;;;;;19.31;56.12;101439.38;5052251;28;20729;-60
2021/08/23 02:18:33;;;;;;;9.27;6.07;;;;;;;19.20;55.87;101437.03;5034234;28;20601;-60
2021/08/23 02:20:59;;;;;;;8.20;6.03;;;;;;;19.15;56.05;101436.88;5034195;28;20273;-60
2021/08/23 02:23:24;;;;;;;11.07;6.13;;;;;;;18.91;56.31;101396.66;5052011;28;20275;-60
2021/08/23 02:25:50;;;;;;;9.90;6.03;;;;;;;19.10;56.04;101431.91;5051920;28;20180;-60
2021/08/23 02:28:15;;;;;;;8.33;5.60;;;;;;;19.12;56.27;101437.81;5052307;28;20234;-60
2021/08/23 02:30:41;;;;;;;7.60;6.33;;;;;;;19.11;55.82;101444.69;5051990;28;20182;-60
2021/08/23 02:33:06;;;;;;;7.40;5.73;;;;;;;19.12;56.48;101452.66;5051822;28;20177;-60
2021/08/23 02:35:32;;;;;;;8.43;5.73;;;;;;;19.14;56.19;101441.72;5051769;28;20176;-60
2021/08/23 02:37:57;;;;;;;14.93;6.67;;;;;;;19.21;56.28;101455.47;5051717;28;20187;-60
2021/08/23 02:40:23;;;;;;;15.90;6.23;;;;;;;19.20;56.18;101450.31;5051649;28;20180;-60
2021/08/23 02:42:49;;;;;;;10.13;5.80;;;;;;;19.35;56.15;101465.28;5051416;28;20214;-60
2021/08/23 02:45:14;;;;;;;9.73;5.33;;;;;;;19.27;55.80;101462.03;5051751;28;20238;-60
2021/08/23 02:47:40;;;;;;;8.77;5.93;;;;;;;19.23;56.12;101460.59;5051719;28;20183;-60
2021/08/23 02:50:08;;;;;;;11.50;5.53;;;;;;;19.13;56.21;101459.06;5051612;28;20615;-60
2021/08/23 02:52:34;;;;;;;9.10;5.60;;;;;;;19.00;56.37;101450.03;5051554;28;20172;-60
2021/08/23 02:54:59;;;;;;;7.07;5.70;;;;;;;18.91;56.73;101456.44;5051612;28;20184;-60
2021/08/23 02:57:25;;;;;;;8.33;5.93;;;;;;;18.88;56.82;101460.16;5051351;28;20184;-60
2021/08/23 02:59:50;;;;;;;8.67;6.20;;;;;;;18.79;57.27;101454.56;5051679;28;20176;-60
2021/08/23 03:02:16;;;;;;;9.83;6.07;;;;;;;18.51;57.45;101421.34;5051395;28;20233;-60
2021/08/23 03:04:41;;;;;;;9.87;6.27;;;;;;;18.76;57.53;101458.31;5033631;28;20280;-60
2021/08/23 03:07:07;;;;;;;10.10;5.97;;;;;;;18.85;57.20;101455.50;5051407;28;20191;-60
2021/08/23 03:09:32;;;;;;;8.70;5.87;;;;;;;18.44;57.27;101402.00;5051283;28;20676;-60
2021/08/23 03:11:58;;;;;;;8.10;5.43;;;;;;;18.90;57.22;101456.91;5051270;28;20555;-60
2021/08/23 03:14:24;;;;;;;7.27;6.07;;;;;;;18.61;56.91;101397.63;5051225;28;20186;-60
2021/08/23 03:16:49;;;;;;;12.03;5.90;;;;;;;19.11;56.90;101470.78;5051450;28;20211;-60
2021/08/23 03:19:15;;;;;;;10.60;5.87;;;;;;;19.16;56.75;101472.16;5051250;28;20172;-60
2021/08/23 03:21:40;;;;;;;11.07;5.93;;;;;;;18.82;56.58;101424.75;5051176;28;20261;-60
2021/08/23 03:24:06;;;;;;;6.70;5.73;;;;;;;19.12;56.09;101474.34;5051273;28;20202;-60
2021/08/23 03:26:32;;;;;;;8.77;6.70;;;;;;;19.00;55.97;101472.50;5051292;28;20265;-60
2021/08/23 03:28:57;;;;;;;10.33;7.27;;;;;;;18.38;56.16;101387.81;5051323;28;20184;-60
2021/08/23 03:31:23;;;;;;;8.07;7.17;;;;;;;18.48;56.31;101417.44;5050888;28;20632;-60
2021/08/23 03:33:48;;;;;;;8.87;7.00;;;;;;;18.75;56.35;101482.03;5050877;28;20187;-60
2021/08/23 03:36:14;;;;;;;9.83;7.77;;;;;;;18.66;56.65;101484.03;5051115;28;20183;-60
2021/08/23 03:38:41;;;;;;;11.47;7.47;;;;;;;18.20;56.90;101432.66;5053320;28;20175;-60
2021/08/23 03:41:07;;;;;;;11.13;7.47;;;;;;;18.56;57.22;101499.31;5055122;28;20562;-60
2021/08/23 03:43:32;;;;;;;12.17;7.70;;;;;;;18.52;57.23;101491.03;5054725;28;20239;-60
2021/08/23 03:45:58;;;;;;;9.90;7.10;;;;;;;18.47;57.56;101493.72;5055058;28;20561;-60
2021/08/23 03:48:23;;;;;;;9.23;6.57;;;;;;;18.23;58.72;101484.25;5055011;28;20229;-60
2021/08/23 03:50:49;;;;;;;9.27;7.03;;;;;;;18.26;59.06;101483.34;5037198;28;20249;-60
2021/08/23 03:53:14;;;;;;;8.23;6.53;;;;;;;18.32;59.12;101475.88;5054769;28;20210;-60
2021/08/23 03:55:40;;;;;;;7.83;6.30;;;;;;;18.29;59.21;101457.94;5054985;28;20172;-60
2021/08/23 03:58:05;;;;;;;14.60;7.03;;;;;;;18.48;58.68;101484.81;5054977;28;20609;-60
2021/08/23 04:00:31;;;;;;;11.47;6.70;;;;;;;18.56;58.68;101491.69;5055168;28;20241;-60
2021/08/23 04:02:57;;;;;;;9.27;6.50;;;;;;;18.63;58.44;101488.56;5054745;28;20209;-60
2021/08/23 04:05:22;;;;;;;7.13;5.97;;;;;;;18.68;58.42;101495.59;5054597;28;20190;-60
2021/08/23 04:07:48;;;;;;;8.03;6.27;;;;;;;18.76;58.62;101494.03;5054789;28;20665;-60
2021/08/23 04:10:14;;;;;;;14.13;6.30;;;;;;;18.80;58.42;101486.22;5054579;28;20185;-60
2021/08/23 04:12:40;;;;;;;15.13;7.00;;;;;;;18.77;58.60;101487.19;5054621;28;20176;-60
2021/08/23 04:15:06;;;;;;;14.27;6.43;;;;;;;18.86;58.10;101484.34;5054828;28;20177;-60
2021/08/23 04:17:31;;;;;;;9.53;6.57;;;;;;;18.97;57.54;101481.84;5054483;28;20181;-60
2021/08/23 04:20:00;;;;;;;8.73;5.23;;;;;;;18.62;57.37;101432.91;5054277;28;20210;-60
2021/08/23 04:22:26;;;;;;;9.70;6.13;;;;;;;19.11;56.79;101492.47;5054287;28;20282;-60
2021/08/23 04:24:51;;;;;;;9.20;5.80;;;;;;;19.10;56.75;101500.13;5054283;28;20377;-60
2021/08/23 04:27:17;;;;;;;11.27;5.90;;;;;;;19.16;56.76;101491.81;5054282;28;20173;-60
2021/08/23 04:29:42;;;;;;;10.97;5.80;;;;;;;19.21;58.29;101502.44;5054141;28;20265;-60
2021/08/23 04:32:09;;;;;;;9.53;6.13;;;;;;;19.37;57.33;101508.53;5053998;28;20188;-60
2021/08/23 04:34:34;;;;;;;9.67;5.73;;;;;;;19.43;56.85;101501.03;5054062;28;20180;-60
2021/08/23 04:37:03;;;;;;;11.73;5.53;;;;;;;19.54;56.85;101509.72;5045263;28;20180;-60
2021/08/23 04:39:32;;;;;;;14.27;6.90;;;;;;;19.54;55.87;101514.59;5046964;28;20188;-60
2021/08/23 04:41:59;;;;;;;8.77;6.20;;;;;;;19.48;56.08;101513.66;5043389;28;20214;-60
2021/08/23 04:44:24;;;;;;;11.93;6.10;;;;;;;19.55;55.97;101514.09;5051992;28;20571;-60
2021/08/23 04:46:50;;;;;;;13.17;8.30;;;;;;;19.61;55.37;101512.22;5052194;28;20246;-60
2021/08/23 04:49:16;;;;;;;12.47;7.63;;;;;;;19.62;55.33;101510.19;5052744;28;20192;-60
2021/08/23 04:51:42;;;;;;;12.67;7.60;;;;;;;19.75;55.15;101516.41;5052129;28;20270;-60
2021/08/23 04:54:08;;;;;;;11.70;6.87;;;;;;;19.84;54.96;101519.16;5051953;28;20279;-60
2021/08/23 04:56:33;;;;;;;69.57;10.67;;;;;;;19.90;55.35;101523.69;5052893;28;20271;-60
2021/08/23 04:58:59;;;;;;;7.13;5.77;;;;;;;19.83;55.28;101520.41;5052515;28;20268;-60
2021/08/23 05:01:24;;;;;;;9.03;5.80;;;;;;;19.84;55.41;101513.53;5052452;28;20574;-60
2021/08/23 05:03:50;;;;;;;25.77;7.37;;;;;;;19.89;55.42;101508.06;5034541;28;20576;-60
2021/08/23 05:06:15;;;;;;;182.17;16.47;;;;;;;19.98;55.33;101512.84;5052621;28;20180;-60
2021/08/23 05:08:41;;;;;;;29.77;7.10;;;;;;;19.82;55.01;101466.22;5049925;28;20180;-60
2021/08/23 05:11:07;;;;;;;29.30;7.27;;;;;;;20.16;54.99;101510.00;5052515;28;20191;-60
2021/08/23 05:13:33;;;;;;;11.40;7.17;;;;;;;20.05;54.75;101509.72;5034142;28;20179;-60
2021/08/23 05:15:58;;;;;;;18.57;6.77;;;;;;;20.06;55.21;101495.16;5052028;28;20192;-60
2021/08/23 05:18:24;;;;;;;11.37;7.20;;;;;;;20.14;55.25;101513.28;5049723;28;20649;-60
2021/08/23 05:20:50;;;;;;;161.57;15.60;;;;;;;20.03;55.78;101498.16;5034042;28;20191;-60
2021/08/23 05:23:15;;;;;;;25.43;7.77;;;;;;;20.18;55.29;101513.09;5047549;28;20231;-60
2021/08/23 05:25:41;;;;;;;16.93;7.37;;;;;;;20.28;55.84;101526.66;5051625;28;20646;-60
2021/08/23 05:28:07;;;;;;;12.17;6.70;;;;;;;20.35;56.41;101517.06;5052280;28;20186;-60
2021/08/23 05:30:33;;;;;;;15.60;7.23;;;;;;;20.24;57.03;101530.91;5051962;28;20737;-60
2021/08/23 05:32:59;;;;;;;20.67;7.10;;;;;;;20.33;56.79;101536.47;5050791;28;20201;-60
2021/08/23 05:35:25;;;;;;;22.83;7.37;;;;;;;20.49;57.00;101533.25;5045157;28;20817;-60
2021/08/23 05:37:50;;;;;;;18.00;7.50;;;;;;;20.56;56.89;101536.50;5051731;28;20485;-60
2021/08/23 05:40:17;;;;;;;13.13;7.43;;;;;;;20.58;56.91;101524.75;5033767;28;20227;-60
2021/08/23 05:42:43;;;;;;;12.53;7.90;;;;;;;20.54;57.53;101519.31;5049875;28;20200;-61
2021/08/23 05:45:09;;;;;;;18.80;7.90;;;;;;;20.80;57.32;101537.28;5051798;28;20199;-60
2021/08/23 05:47:36;;;;;;;17.30;8.00;;;;;;;20.83;57.32;101513.00;5048025;28;20191;-60
2021/08/23 05:50:02;;;;;;;12.67;7.87;;;;;;;21.06;56.99;101518.63;5050452;28;20187;-60
2021/08/23 05:52:27;;;;;;;16.17;7.73;;;;;;;21.31;56.41;101534.19;5052119;28;20245;-60
2021/08/23 05:54:53;;;;;;;12.53;7.60;;;;;;;21.39;54.47;101526.94;5051633;28;20194;-60
2021/08/23 05:57:18;;;;;;;11.33;7.63;;;;;;;21.46;53.93;101530.13;5033699;28;20188;-60
2021/08/23 05:59:44;;;;;;;14.47;7.37;;;;;;;21.57;53.96;101523.91;5031142;28;20191;-60
2021/08/23 06:02:10;;;;;;;11.63;7.30;;;;;;;21.73;53.11;101523.44;5051081;28;20196;-60
2021/08/23 06:04:35;;;;;;;15.37;7.80;;;;;;;21.83;53.36;101525.69;5052075;28;20246;-60
2021/08/23 06:07:01;;;;;;;14.67;7.90;;;;;;;21.89;53.24;101523.72;5051271;28;20303;-60
2021/08/23 06:09:26;;;;;;;12.03;8.50;;;;;;;21.99;52.27;101507.44;5050294;28;20851;-60
2021/08/23 06:11:52;;;;;;;30.20;8.40;;;;;;;22.17;52.12;101518.50;5051778;28;20172;-60
2021/08/23 06:14:17;;;;;;;16.37;8.43;;;;;;;22.18;51.42;101520.84;5051693;28;20632;-60
2021/08/23 06:16:43;;;;;;;22.43;8.00;;;;;;;22.20;51.43;101492.88;5051106;28;20274;-60
2021/08/23 06:19:08;;;;;;;11.37;7.67;;;;;;;22.19;51.24;101484.91;5051602;28;20259;-60
2021/08/23 06:21:34;;;;;;;17.47;7.80;;;;;;;22.64;51.32;101523.81;5051540;28;20234;-60
2021/08/23 06:24:00;;;;;;;24.47;8.37;;;;;;;22.85;50.81;101525.34;5033699;28;20188;-60
2021/08/23 06:26:26;;;;;;;12.43;7.70;;;;;;;22.94;50.13;101525.22;5051121;28;20654;-61
2021/08/23 06:28:51;;;;;;;21.93;8.67;;;;;;;22.69;49.32;101484.34;5051459;28;20569;-60
2021/08/23 06:31:17;;;;;;;17.13;8.50;;;;;;;22.70;49.82;101490.75;5051257;28;20180;-60
2021/08/23 06:33:42;;;;;;;12.57;7.70;;;;;;;22.67;50.02;101464.25;5051043;28;20219;-61
2021/08/23 06:36:08;;;;;;;12.70;7.97;;;;;;;23.34;48.59;101530.84;5048680;28;20191;-61
2021/08/23 06:38:33;;;;;;;9.87;8.03;;;;;;;23.43;48.67;101522.19;5050611;28;20184;-61
2021/08/23 06:40:59;;;;;;;17.37;7.90;;;;;;;23.51;48.58;101526.91;5050914;28;20188;-61
2021/08/23 06:43:25;;;;;;;15.97;8.17;;;;;;;23.55;47.88;101521.75;5032256;28;20260;-61
2021/08/23 06:45:51;;;;;;;11.93;7.70;;;;;;;23.23;47.89;101479.81;5050607;28;20168;-61
2021/08/23 06:48:17;;;;;;;12.80;8.43;;;;;;;23.43;47.85;101516.53;5051054;28;20187;-61
2021/08/23 06:50:42;;;;;;;12.23;7.50;;;;;;;23.69;47.56;101511.63;5048543;28;20260;-61
2021/08/23 06:53:08;;;;;;;17.20;7.83;;;;;;;23.94;47.51;101524.94;5040088;28;20184;-60
2021/08/23 06:55:34;;;;;;;10.87;7.40;;;;;;;23.94;46.85;101511.59;5050868;28;20220;-61
2021/08/23 06:58:00;;;;;;;18.33;8.60;;;;;;;24.03;47.42;101519.09;5032686;28;20329;-61
2021/08/23 07:00:26;;;;;;;13.60;8.20;;;;;;;24.06;46.71;101533.03;5051074;28;20649;-61
2021/08/23 07:02:52;;;;;;;10.50;7.30;;;;;;;24.04;46.44;101534.81;5050528;28;20204;-61
2021/08/23 07:05:17;;;;;;;13.43;7.37;;;;;;;24.04;47.19;101531.97;5050939;28;20611;-60
2021/08/23 07:07:43;;;;;;;9.67;7.20;;;;;;;24.05;46.78;101530.72;5050619;28;20259;-60
2021/08/23 07:10:11;;;;;;;12.20;7.73;;;;;;;24.27;46.33;101528.03;5043271;28;20187;-61
2021/08/23 07:12:37;;;;;;;14.50;8.00;;;;;;;24.37;45.92;101527.31;5048610;28;20646;-67
2021/08/23 07:15:03;;;;;;;4.63;2.53;;;;;;;25.00;48.92;101528.69;5034951;28;20188;-66
2021/08/23 07:17:28;;;;;;;6.07;4.37;;;;;;;25.66;46.34;101537.34;5047534;28;20223;-65
2021/08/23 07:19:54;;;;;;;9.13;5.77;;;;;;;25.76;45.32;101541.50;5048632;28;20184;-65
2021/08/23 07:22:19;;;;;;;7.67;6.80;;;;;;;25.96;44.04;101534.81;5047117;28;20588;-65
2021/08/23 07:24:47;;;;;;;11.37;6.40;;;;;;;26.54;43.42;101523.06;5047375;28;20176;-66
2021/08/23 07:27:12;;;;;;;10.77;6.77;;;;;;;26.83;42.29;101530.22;5046621;28;20251;-66
2021/08/23 07:29:38;;;;;;;11.23;6.57;;;;;;;26.57;42.39;101475.78;5044405;28;20275;-67
2021/08/23 07:32:03;;;;;;;8.33;6.30;;;;;;;27.16;41.53;101527.19;5047362;28;20195;-66
2021/08/23 07:34:29;;;;;;;11.10;6.77;;;;;;;27.30;40.70;101518.38;5047756;28;20190;-65
2021/08/23 07:36:54;;;;;;;9.23;6.83;;;;;;;27.53;39.95;101524.69;5048023;28;20180;-66
2021/08/23 07:39:20;;;;;;;13.53;7.27;;;;;;;27.46;39.89;101523.16;5047991;28;20179;-66
2021/08/23 07:41:45;;;;;;;10.10;7.03;;;;;;;27.63;39.47;101505.97;5048509;28;20184;-66
2021/08/23 07:44:11;;;;;;;11.83;7.60;;;;;;;27.64;39.65;101516.81;5047873;28;20307;-66
2021/08/23 07:46:37;;;;;;;10.13;7.87;;;;;;;27.42;39.31;101519.03;5048179;28;20735;-62
2021/08/23 07:49:03;;;;;;;12.23;7.63;;;;;;;27.15;39.14;101523.59;5048535;28;20187;-63
2021/08/23 07:51:29;;;;;;;10.53;7.30;;;;;;;27.12;39.61;101512.50;5048761;28;20635;-63
2021/08/23 07:53:54;;;;;;;10.83;7.50;;;;;;;27.01;40.26;101504.78;5047802;28;20176;-64
2021/08/23 07:56:20;;;;;;;8.33;7.17;;;;;;;27.09;40.38;101517.16;5047641;28;20191;-62
2021/08/23 07:58:45;;;;;;;10.80;7.43;;;;;;;27.06;40.84;101517.44;5048429;28;20184;-66
2021/08/23 08:01:11;;;;;;;14.13;7.47;;;;;;;26.73;41.01;101492.78;5047697;28;20216;-68
2021/08/23 08:03:37;;;;;;;11.90;6.83;;;;;;;26.99;41.92;101503.75;5047672;28;20221;-73
2021/08/23 08:06:03;;;;;;;10.73;7.83;;;;;;;27.26;40.13;101497.94;5029403;28;20196;-69
2021/08/23 08:08:29;;;;;;;11.87;7.10;;;;;;;27.39;39.53;101480.25;5047878;28;20177;-70
2021/08/23 08:10:58;;;;;;;11.37;7.20;;;;;;;27.50;39.55;101491.56;5029775;28;20184;-70
2021/08/23 08:13:24;;;;;;;12.53;7.20;;;;;;;27.66;39.36;101487.81;5046909;28;20177;-70
2021/08/23 08:15:50;;;;;;;9.30;6.47;;;;;;;27.83;38.96;101491.28;5043880;28;20188;-67
2021/08/23 08:18:15;;;;;;;12.50;7.00;;;;;;;28.04;38.25;101490.31;5047664;28;20179;-67
2021/08/23 08:20:41;;;;;;;12.93;7.27;;;;;;;27.87;37.31;101431.97;5047582;28;20193;-67
2021/08/23 08:23:07;;;;;;;9.53;7.07;;;;;;;28.20;37.51;101486.53;5047271;28;20200;-73
2021/08/23 08:25:32;;;;;;;8.73;6.90;;;;;;;28.09;37.36;101446.75;5033235;28;20195;-69
2021/08/23 08:27:58;;;;;;;12.40;7.70;;;;;;;28.06;37.32;101484.88;5051485;28;20180;-74
2021/08/23 08:30:23;;;;;;;10.70;7.10;;;;;;;27.94;38.18;101485.53;5051416;28;20172;-69
2021/08/23 08:32:49;;;;;;;11.30;8.10;;;;;;;27.59;37.89;101462.75;5040861;28;20204;-67
2021/08/23 08:35:14;;;;;;;11.43;6.80;;;;;;;27.71;38.60;101476.38;5033084;28;20925;-70
2021/08/23 08:37:40;;;;;;;11.23;7.03;;;;;;;27.76;38.69;101457.69;5024308;28;20271;-70
2021/08/23 08:40:08;;;;;;;7.57;6.50;;;;;;;27.94;38.00;101459.88;5051003;28;20180;-70
2021/08/23 08:42:34;;;;;;;12.27;7.17;;;;;;;28.11;38.11;101469.03;5051172;28;20196;-70
2021/08/23 08:45:00;;;;;;;10.53;7.53;;;;;;;27.75;38.05;101468.28;5050757;28;20601;-70
2021/08/23 08:47:27;;;;;;;10.17;7.23;;;;;;;27.67;38.58;101426.69;5050396;28;20184;-69
2021/08/23 08:49:54;;;;;;;12.80;7.37;;;;;;;27.73;38.40;101436.72;5051345;28;20185;-68
2021/08/23 08:52:20;;;;;;;8.37;7.30;;;;;;;27.84;38.36;101433.03;5051121;28;20189;-70
2021/08/23 08:54:45;;;;;;;9.63;7.47;;;;;;;27.85;38.43;101460.22;5050770;28;20254;-67
2021/08/23 08:57:11;;;;;;;11.07;7.20;;;;;;;27.73;38.96;101435.97;5051459;28;20181;-70
2021/08/23 08:59:37;;;;;;;13.43;7.90;;;;;;;27.46;38.60;101386.53;5052748;28;20577;-70
2021/08/23 09:02:04;;;;;;;14.60;7.03;;;;;;;27.83;38.66;101446.50;5032781;28;20203;-69
2021/08/23 09:04:35;;;;;;;13.90;7.67;;;;;;;28.07;38.84;101449.38;5050425;28;20669;-71
2021/08/23 09:07:02;;;;;;;11.10;7.40;;;;;;;27.90;38.38;101402.41;5051619;28;20212;-70
2021/08/23 09:09:29;;;;;;;12.60;7.05;;;;;;;28.54;37.81;101447.81;5051460;28;20557;-69
2021/08/23 09:12:14;;;;;;;13.60;7.68;;;;;;;28.80;36.75;101439.41;5052526;28;20209;-68
2021/08/23 09:14:54;;;;;;;13.85;7.85;;;;;;;28.93;36.21;101442.34;5047492;28;20168;-71
2021/08/23 09:17:26;;;;;;;16.13;7.60;;;;;;;28.93;36.72;101438.72;5045864;28;20206;-70
2021/08/23 09:20:05;;;;;;;13.98;7.43;;;;;;;28.83;36.62;101444.06;5050481;28;20226;-69
2021/08/23 09:22:31;;;;;;;10.95;7.60;;;;;;;28.75;37.15;101440.25;5050132;28;20199;-69
2021/08/23 09:25:07;;;;;;;11.75;7.57;;;;;;;28.95;36.65;101436.88;5049906;28;20654;-69
2021/08/23 09:27:32;;;;;;;19.90;7.65;;;;;;;29.02;35.82;101424.84;5048178;28;20282;-69
2021/08/23 09:30:00;;;;;;;17.60;7.32;;;;;;;29.28;36.13;101429.91;5049518;28;20745;-68
2021/08/23 09:32:28;;;;;;;14.60;7.68;;;;;;;29.34;35.64;101436.28;5046521;28;20172;-68
2021/08/23 09:34:54;;;;;;;11.85;7.35;;;;;;;29.63;36.08;101424.66;5048023;28;20380;-68
2021/08/23 09:37:22;;;;;;;11.40;6.95;;;;;;;29.88;35.09;101416.66;5047549;28;20184;-68
2021/08/23 09:39:48;;;;;;;16.92;7.13;;;;;;;30.17;35.26;101416.38;5049694;28;20248;-69
2021/08/23 09:42:17;;;;;;;14.30;6.78;;;;;;;30.16;34.02;101376.91;5049157;28;20296;-68
2021/08/23 09:44:42;;;;;;;13.98;7.32;;;;;;;30.47;33.92;101370.25;5031452;28;20300;-69
2021/08/23 09:47:09;;;;;;;9.68;6.97;;;;;;;30.88;33.23;101399.00;5050041;28;20193;-68
2021/08/23 09:49:37;;;;;;;8.73;6.40;;;;;;;30.83;32.86;101389.22;5050343;28;20177;-68
2021/08/23 09:52:04;;;;;;;10.68;5.82;;;;;;;31.16;32.61;101388.41;5047689;28;20680;-69
2021/08/23 09:54:29;;;;;;;9.55;6.07;;;;;;;31.05;32.07;101397.28;5031245;28;20188;-68
2021/08/23 09:56:56;;;;;;;11.20;6.00;;;;;;;31.21;32.78;101393.25;5049248;28;20238;-68
2021/08/23 09:59:23;;;;;;;14.05;6.18;;;;;;;31.46;31.64;101382.22;5049736;28;20180;-68
2021/08/23 10:01:51;;;;;;;12.35;5.30;;;;;;;31.70;31.42;101384.69;5049795;28;20180;-69
2021/08/23 10:04:18;;;;;;;9.90;6.25;;;;;;;31.77;31.05;101381.13;5049570;28;20176;-68
2021/08/23 10:06:45;;;;;;;11.25;5.82;;;;;;;31.90;30.95;101384.69;5039174;28;20747;-69
2021/08/23 10:09:16;;;;;;;10.25;5.57;;;;;;;32.11;30.84;101373.94;5050039;28;20184;-68
2021/08/23 10:11:42;;;;;;;7.03;5.43;;;;;;;32.03;30.92;101373.09;5049770;28;20570;-68
2021/08/23 10:14:08;;;;;;;9.43;5.55;;;;;;;31.93;30.95;101377.81;5049357;28;20179;-68
2021/08/23 10:16:37;;;;;;;10.55;5.50;;;;;;;32.01;30.61;101364.31;5049121;28;20184;-68
2021/08/23 10:19:04;;;;;;;7.75;5.07;;;;;;;31.90;29.90;101326.59;5049337;28;20450;-68
2021/08/23 10:21:30;;;;;;;13.88;5.20;;;;;;;32.37;29.75;101367.19;5049299;28;20389;-68
2021/08/23 10:23:57;;;;;;;10.70;5.35;;;;;;;32.42;30.64;101363.38;5049705;28;20216;-68
2021/08/23 10:26:23;;;;;;;9.40;5.30;;;;;;;32.65;30.38;101361.38;5049116;28;20226;-68
2021/08/23 10:28:49;;;;;;;8.63;4.57;;;;;;;32.77;29.25;101357.63;5031704;28;20839;-69
2021/08/23 10:31:17;;;;;;;10.38;5.18;;;;;;;32.86;29.75;101354.16;5031049;28;20701;-69
2021/08/23 10:33:44;;;;;;;6.50;4.57;;;;;;;32.87;29.77;101349.94;5043952;28;20235;-68
2021/08/23 10:36:12;;;;;;;7.78;5.40;;;;;;;32.90;29.53;101331.59;5047436;28;20185;-68
2021/08/23 10:38:42;;;;;;;8.98;4.88;;;;;;;33.26;29.46;101349.44;5046829;28;20200;-68
2021/08/23 10:41:13;;;;;;;7.35;4.80;;;;;;;33.51;28.49;101347.53;5031492;28;20192;-68
2021/08/23 10:43:47;;;;;;;6.63;4.63;;;;;;;33.30;28.64;101346.19;5044308;28;20601;-69
2021/08/23 10:46:39;;;;;;;6.72;4.80;;;;;;;33.43;28.61;101338.16;5048283;28;20568;-68
2021/08/23 10:49:10;;;;;;;7.47;4.82;;;;;;;33.65;27.94;101346.00;5046355;28;20196;-68
2021/08/23 10:51:41;;;;;;;8.15;5.13;;;;;;;33.76;28.05;101344.81;5048982;28;20255;-69
2021/08/23 10:54:27;;;;;;;7.30;4.60;;;;;;;33.90;27.52;101334.66;5048733;28;20268;-68
2021/08/23 10:57:05;;;;;;;8.77;4.82;;;;;;;33.75;27.68;101282.91;5048159;28;20180;-69
2021/08/23 10:59:40;;;;;;;7.28;4.82;;;;;;;33.98;27.48;101327.53;5045083;28;20654;-69
2021/08/23 11:02:06;;;;;;;7.35;4.97;;;;;;;34.22;27.80;101332.63;5048640;28;20207;-69
2021/08/23 11:04:32;;;;;;;6.18;4.20;;;;;;;34.29;27.64;101305.97;5019112;28;20215;-69
2021/08/23 11:07:00;;;;;;;7.45;5.47;;;;;;;34.25;27.00;101316.31;5031004;28;20207;-69
2021/08/23 11:09:39;;;;;;;6.45;4.07;;;;;;;34.57;26.75;101311.41;5046223;28;20180;-69
2021/08/23 11:12:19;;;;;;;6.63;4.40;;;;;;;34.56;26.75;101307.00;5048597;28;20179;-69
2021/08/23 11:14:54;;;;;;;5.28;4.78;;;;;;;34.38;26.52;101305.34;5046191;28;20176;-69
2021/08/23 11:17:32;;;;;;;5.80;3.95;;;;;;;34.61;25.61;101293.72;5044693;28;20263;-69